createdAt,value
2023-02-14T00:02:28.491Z,54.63
2023-02-14T00:06:33.855Z,51.37
2023-02-14T00:10:35.006Z,51.30
2023-02-14T00:14:54.799Z,49.90
2023-02-14T00:19:02.616Z,55.97
2023-02-14T00:23:03.905Z,50.85
2023-02-14T00:27:05.020Z,50.93
2023-02-14T00:31:07.244Z,55.33
2023-02-14T00:35:09.301Z,53.00
2023-02-14T00:39:12.600Z,51.10
2023-02-14T00:43:13.810Z,49.43
2023-02-14T00:47:15.099Z,50.07
2023-02-14T00:51:17.920Z,55.93
2023-02-14T00:55:19.079Z,55.67
2023-02-14T00:59:20.637Z,50.57
2023-02-14T01:03:22.315Z,57.50
2023-02-14T01:07:23.374Z,56.07
2023-02-14T01:11:25.061Z,57.90
2023-02-14T01:15:26.105Z,55.30
2023-02-14T01:19:27.387Z,56.17
2023-02-14T01:23:28.368Z,58.13
2023-02-14T01:27:29.603Z,57.43
2023-02-14T01:31:32.392Z,62.40
2023-02-14T01:35:37.411Z,56.33
2023-02-14T01:39:38.885Z,58.27
2023-02-14T01:44:01.584Z,59.00
2023-02-14T01:48:02.840Z,67.30
2023-02-14T01:52:13.981Z,64.47
2023-02-14T01:56:19.840Z,60.10
2023-02-14T02:00:40.657Z,62.70
2023-02-14T02:04:45.000Z,58.87
2023-02-14T02:09:17.367Z,56.67
2023-02-14T02:13:20.736Z,61.10
2023-02-14T02:17:31.306Z,53.47
2023-02-14T02:22:01.072Z,45.90
2023-02-14T02:26:14.718Z,61.13
2023-02-14T02:30:41.134Z,58.90
2023-02-14T02:35:06.217Z,62.63
2023-02-14T02:39:23.198Z,69.77
2023-02-14T02:43:46.321Z,56.27
2023-02-14T02:48:12.185Z,59.23
2023-02-14T02:52:47.684Z,58.60
2023-02-14T02:56:52.924Z,60.37
2023-02-14T03:00:55.330Z,68.10
2023-02-14T03:05:00.162Z,71.97
2023-02-14T03:09:22.085Z,69.10
2023-02-14T03:13:39.592Z,73.00
2023-02-14T03:17:56.583Z,86.53
2023-02-14T03:22:07.510Z,72.60
2023-02-14T03:26:15.059Z,79.87
2023-02-14T03:30:23.129Z,77.13
2023-02-14T03:34:30.929Z,79.27
2023-02-14T03:38:47.862Z,58.37
2023-02-14T03:43:04.368Z,55.33
2023-02-14T03:47:09.225Z,52.77
2023-02-14T03:51:13.201Z,54.00
2023-02-14T03:55:17.582Z,48.97
2023-02-14T03:59:22.541Z,48.87
2023-02-14T04:03:26.316Z,54.80
2023-02-14T04:07:27.518Z,58.00
2023-02-14T04:11:28.506Z,57.63
2023-02-14T04:15:29.525Z,53.70
2023-02-14T04:19:30.677Z,52.07
2023-02-14T04:23:31.883Z,49.87
2023-02-14T04:27:32.874Z,55.53
2023-02-14T04:31:34.003Z,42.63
2023-02-14T04:35:35.157Z,60.47
2023-02-14T04:39:36.967Z,102.73
2023-02-14T04:43:37.928Z,93.07
2023-02-14T04:47:38.922Z,98.37
2023-02-14T04:51:40.729Z,102.93
2023-02-14T04:55:41.874Z,149.70
2023-02-14T04:59:43.030Z,135.77
2023-02-14T05:03:43.963Z,192.07
2023-02-14T05:07:46.992Z,186.90
2023-02-14T05:11:47.967Z,161.40
2023-02-14T05:15:48.942Z,125.07
2023-02-14T05:19:50.125Z,152.67
2023-02-14T05:23:51.070Z,179.90
2023-02-14T05:27:52.217Z,235.80
2023-02-14T05:31:53.345Z,250.33
2023-02-14T05:35:54.372Z,213.17
2023-02-14T05:39:55.499Z,230.03
2023-02-14T05:43:56.558Z,152.73
2023-02-14T05:47:57.531Z,205.57
2023-02-14T05:51:58.769Z,290.57
2023-02-14T05:55:59.946Z,248.90
2023-02-14T06:00:01.641Z,301.47
2023-02-14T06:04:02.665Z,246.33
2023-02-14T06:08:03.691Z,228.17
2023-02-14T06:12:05.220Z,222.13
2023-02-14T06:16:06.508Z,302.43
2023-02-14T06:20:09.381Z,194.33
2023-02-14T06:24:10.600Z,206.47
2023-02-14T06:28:11.742Z,263.77
2023-02-14T06:32:13.166Z,238.30
2023-02-14T06:36:14.591Z,169.73
2023-02-14T06:40:15.881Z,154.40
2023-02-14T06:44:17.462Z,146.87
2023-02-14T06:48:18.603Z,206.97
2023-02-14T06:52:20.746Z,180.20
2023-02-14T06:56:21.949Z,150.27
2023-02-14T07:00:23.241Z,135.43
2023-02-14T07:04:24.192Z,161.07
2023-02-14T07:08:26.320Z,145.97
2023-02-14T07:12:27.419Z,196.00
2023-02-14T07:16:28.725Z,149.23
2023-02-14T07:20:29.971Z,137.93
2023-02-14T07:24:30.963Z,167.93
2023-02-14T07:28:33.137Z,139.80
2023-02-14T07:32:34.636Z,124.67
2023-02-14T07:36:38.438Z,130.70
2023-02-14T07:40:39.708Z,114.93
2023-02-14T07:44:41.487Z,129.43
2023-02-14T07:48:42.899Z,94.20
2023-02-14T07:52:44.768Z,130.90
2023-02-14T07:56:45.763Z,107.73
2023-02-14T08:00:47.032Z,138.17
2023-02-14T08:04:48.316Z,141.40
2023-02-14T08:08:49.441Z,134.70
2023-02-14T08:12:59.688Z,346.67
2023-02-14T08:17:01.379Z,129.50
2023-02-14T08:21:03.751Z,127.53
2023-02-14T08:25:05.505Z,161.67
2023-02-14T08:29:06.923Z,243.60
2023-02-14T08:33:09.144Z,120.20
2023-02-14T08:37:10.250Z,219.83
2023-02-14T08:41:11.724Z,160.67
2023-02-14T08:45:15.285Z,302.07
2023-02-14T08:49:16.810Z,236.70
2023-02-14T08:53:18.223Z,284.33
2023-02-14T08:57:19.423Z,292.27
2023-02-14T09:01:20.700Z,304.63
2023-02-14T09:05:22.872Z,224.43
2023-02-14T09:09:24.212Z,198.30
2023-02-14T09:13:25.627Z,175.07
2023-02-14T09:17:27.239Z,262.83
2023-02-14T09:21:28.979Z,211.27
2023-02-14T09:25:29.912Z,144.50
2023-02-14T09:29:32.103Z,226.00
2023-02-14T09:33:52.298Z,336.00
2023-02-14T09:37:54.473Z,231.83
2023-02-14T09:42:11.349Z,108.37
2023-02-14T09:46:15.428Z,118.10
2023-02-14T09:50:23.158Z,134.47
2023-02-14T09:54:27.555Z,81.33
2023-02-14T09:58:48.118Z,137.17
2023-02-14T10:03:04.419Z,87.67
2023-02-14T10:07:14.158Z,104.63
2023-02-14T10:11:20.262Z,208.87
2023-02-14T10:15:27.897Z,170.73
2023-02-14T10:19:41.287Z,79.07
2023-02-14T10:23:49.229Z,67.30
2023-02-14T10:27:52.919Z,84.50
2023-02-14T10:32:03.339Z,65.57
2023-02-14T10:36:14.136Z,72.70
2023-02-14T10:40:38.950Z,92.97
2023-02-14T10:44:49.534Z,71.80
2023-02-14T10:49:00.677Z,63.93
2023-02-14T10:53:16.734Z,67.83
2023-02-14T10:57:40.341Z,63.47
2023-02-14T11:01:42.365Z,87.90
2023-02-14T11:05:47.057Z,52.50
2023-02-14T11:09:48.727Z,89.50
2023-02-14T11:13:50.430Z,59.33
2023-02-14T11:18:10.747Z,47.40
2023-02-14T11:22:15.858Z,46.53
2023-02-14T11:26:26.097Z,59.70
2023-02-14T11:30:40.393Z,44.53
2023-02-14T11:34:53.781Z,47.47
2023-02-14T11:39:04.454Z,45.40
2023-02-14T11:43:15.615Z,55.20
2023-02-14T11:47:20.096Z,43.13
2023-02-14T11:51:28.011Z,48.60
2023-02-14T11:55:34.886Z,44.13
2023-02-14T11:59:39.777Z,43.73
2023-02-14T12:03:47.094Z,36.83
2023-02-14T12:07:51.723Z,41.53
2023-02-14T12:12:03.093Z,43.30
2023-02-14T12:16:04.667Z,44.00
2023-02-14T12:20:15.878Z,54.77
2023-02-14T12:24:23.799Z,47.07
2023-02-14T12:28:37.999Z,50.70
2023-02-14T12:32:43.138Z,49.60
2023-02-14T12:37:03.490Z,57.20
2023-02-14T12:41:28.450Z,51.53
2023-02-14T12:46:07.214Z,59.67
2023-02-14T12:50:31.332Z,50.03
2023-02-14T12:54:54.917Z,53.73
2023-02-14T12:59:08.505Z,53.43
2023-02-14T13:03:34.955Z,49.90
2023-02-14T13:07:51.856Z,52.27
2023-02-14T13:11:57.170Z,45.43
2023-02-14T13:16:02.014Z,45.37
2023-02-14T13:20:13.133Z,45.23
2023-02-14T13:24:24.245Z,48.23
2023-02-14T13:28:27.308Z,50.37
2023-02-14T13:32:32.336Z,48.10
2023-02-14T13:36:35.226Z,59.10
2023-02-14T13:40:37.277Z,58.43
2023-02-14T13:44:45.417Z,46.73
2023-02-14T13:48:59.398Z,52.20
2023-02-14T13:53:00.905Z,46.53
2023-02-14T13:57:05.849Z,50.47
2023-02-14T14:01:31.487Z,43.23
2023-02-14T14:05:48.012Z,40.70
2023-02-14T14:09:53.061Z,43.13
2023-02-14T14:14:04.115Z,44.03
2023-02-14T14:18:18.517Z,45.50
2023-02-14T14:22:20.500Z,50.03
2023-02-14T14:26:31.525Z,52.63
2023-02-14T14:30:33.073Z,45.07
2023-02-14T14:34:34.184Z,49.33
2023-02-14T14:38:50.170Z,46.87
2023-02-14T14:42:52.842Z,53.03
2023-02-14T14:46:57.705Z,58.20
2023-02-14T14:51:00.733Z,57.47
2023-02-14T14:55:05.378Z,65.50
2023-02-14T14:59:38.587Z,56.80
2023-02-14T15:03:40.102Z,66.47
2023-02-14T15:07:41.502Z,60.37
2023-02-14T15:12:03.149Z,58.13
2023-02-14T15:16:04.996Z,64.40
2023-02-14T15:20:15.796Z,57.33
2023-02-14T15:24:18.992Z,52.00
2023-02-14T15:28:32.837Z,54.50
2023-02-14T15:32:35.721Z,56.13
2023-02-14T15:36:37.136Z,52.70
2023-02-14T15:40:40.077Z,57.10
2023-02-14T15:44:41.087Z,52.83
2023-02-14T15:48:42.693Z,49.80
2023-02-14T15:52:45.363Z,56.07
2023-02-14T15:56:50.517Z,57.50
2023-02-14T16:00:53.354Z,56.87
2023-02-14T16:04:57.225Z,58.90
2023-02-14T16:08:58.628Z,57.50
2023-02-14T16:13:15.424Z,64.03
2023-02-14T16:17:20.367Z,64.93
2023-02-14T16:21:26.237Z,64.00
2023-02-14T16:25:27.221Z,76.93
2023-02-14T16:29:28.345Z,68.80
2023-02-14T16:33:33.541Z,71.13
2023-02-14T16:37:35.506Z,66.53
2023-02-14T16:41:40.443Z,76.60
2023-02-14T16:45:43.466Z,67.17
2023-02-14T16:49:45.638Z,67.77
2023-02-14T16:53:47.608Z,71.17
2023-02-14T16:57:51.337Z,62.10
2023-02-14T17:01:53.463Z,65.45
2023-02-14T17:05:57.393Z,64.53
2023-02-14T17:10:03.196Z,64.27
2023-02-14T17:14:04.991Z,62.17
2023-02-14T17:18:09.791Z,55.50
2023-02-14T17:22:12.980Z,55.60
2023-02-14T17:26:14.136Z,59.30
2023-02-14T17:30:15.967Z,57.00
2023-02-14T17:34:18.996Z,59.07
2023-02-14T17:38:20.872Z,56.80
2023-02-14T17:42:21.952Z,54.47
2023-02-14T17:46:23.111Z,54.77
2023-02-14T17:50:24.572Z,51.10
2023-02-14T17:54:25.828Z,69.23
2023-02-14T17:58:27.186Z,72.83
2023-02-14T18:02:28.778Z,89.33
2023-02-14T18:06:31.186Z,69.10
2023-02-14T18:10:32.237Z,93.10
2023-02-14T18:14:34.327Z,88.10
2023-02-14T18:18:36.608Z,82.00
2023-02-14T18:22:37.846Z,81.13
2023-02-14T18:26:40.579Z,81.40
2023-02-14T18:30:42.261Z,78.63
2023-02-14T18:34:43.773Z,73.00
2023-02-14T18:38:46.876Z,69.67
2023-02-14T18:42:48.188Z,75.33
2023-02-14T18:46:49.339Z,70.37
2023-02-14T18:50:52.658Z,67.80
2023-02-14T18:54:53.972Z,75.47
2023-02-14T18:58:58.637Z,74.27
2023-02-14T19:03:00.740Z,69.90
2023-02-14T19:07:03.934Z,80.77
2023-02-14T19:11:18.130Z,70.57
2023-02-14T19:15:20.185Z,77.40
2023-02-14T19:19:23.111Z,75.80
2023-02-14T19:23:24.528Z,79.10
2023-02-14T19:27:26.025Z,76.93
2023-02-14T19:31:27.854Z,75.37
2023-02-14T19:35:29.558Z,80.17
2023-02-14T19:39:31.142Z,82.23
2023-02-14T19:43:32.529Z,95.03
2023-02-14T19:47:46.258Z,92.57
2023-02-14T19:51:37.109Z,80.50
2023-02-14T19:55:39.923Z,80.13
2023-02-14T19:59:41.302Z,85.20
2023-02-14T20:03:42.780Z,88.30
2023-02-14T20:07:44.277Z,85.00
2023-02-14T20:11:51.485Z,90.57
2023-02-14T20:15:52.824Z,95.17
2023-02-14T20:19:55.559Z,88.17
2023-02-14T20:24:01.646Z,86.87
2023-02-14T20:28:02.843Z,102.60
2023-02-14T20:32:05.593Z,85.30
2023-02-14T20:36:08.044Z,143.03
2023-02-14T20:40:12.375Z,158.97
2023-02-14T20:44:15.970Z,157.97
2023-02-14T20:48:17.345Z,132.30
2023-02-14T20:52:18.813Z,163.17
2023-02-14T20:56:22.838Z,157.13
2023-02-14T21:00:25.534Z,153.53
2023-02-14T21:04:27.565Z,141.47
2023-02-14T21:08:28.992Z,192.37
2023-02-14T21:12:30.212Z,176.77
2023-02-14T21:16:32.711Z,217.50
2023-02-14T21:20:35.377Z,161.70
2023-02-14T21:24:36.680Z,182.67
2023-02-14T21:28:38.055Z,161.03
2023-02-14T21:32:39.250Z,118.37
2023-02-14T21:36:40.604Z,211.27
2023-02-14T21:40:41.725Z,183.27
2023-02-14T21:45:01.484Z,187.00
2023-02-14T21:49:23.060Z,228.50
2023-02-14T21:53:24.721Z,171.20
2023-02-14T21:57:25.948Z,167.00
2023-02-14T22:01:30.385Z,204.47
2023-02-14T22:05:31.633Z,273.67
2023-02-14T22:09:32.894Z,281.63
2023-02-14T22:13:34.857Z,219.47
2023-02-14T22:17:37.445Z,175.60
2023-02-14T22:21:39.029Z,255.47
2023-02-14T22:25:40.194Z,276.73
2023-02-14T22:29:42.022Z,206.60
2023-02-14T22:33:44.898Z,313.97
2023-02-14T22:37:45.872Z,341.27
2023-02-14T22:41:46.935Z,231.57
2023-02-14T22:45:48.994Z,219.40
2023-02-14T22:49:50.264Z,284.77
2023-02-14T22:53:53.404Z,227.87
2023-02-14T22:57:54.349Z,230.03
2023-02-14T23:01:55.366Z,137.23
2023-02-14T23:05:57.121Z,130.83
2023-02-14T23:09:58.260Z,196.23
2023-02-14T23:14:18.188Z,250.47
2023-02-14T23:18:37.729Z,176.77
2023-02-14T23:22:40.117Z,236.60
2023-02-14T23:26:41.348Z,354.10
2023-02-14T23:30:42.483Z,216.23
2023-02-14T23:34:44.105Z,224.50
2023-02-14T23:38:45.243Z,144.40
2023-02-14T23:42:46.343Z,254.20
2023-02-14T23:46:48.908Z,276.13
2023-02-14T23:50:49.915Z,246.77
2023-02-14T23:54:50.863Z,277.00
2023-02-14T23:58:51.731Z,229.30
